createdAt,value
2018-12-15T00:00:00.120Z,17.60
2018-12-15T00:02:27.648Z,17.13
2018-12-15T00:04:55.184Z,17.83
2018-12-15T00:07:22.713Z,15.87
2018-12-15T00:09:50.240Z,15.80
2018-12-15T00:12:17.785Z,15.53
2018-12-15T00:14:45.558Z,15.17
2018-12-15T00:17:13.125Z,16.50
2018-12-15T00:19:40.657Z,15.90
2018-12-15T00:22:08.174Z,15.47
2018-12-15T00:24:35.697Z,15.60
2018-12-15T00:27:03.210Z,15.17
2018-12-15T00:29:30.875Z,13.23
2018-12-15T00:31:58.385Z,13.33
2018-12-15T00:34:25.929Z,13.80
2018-12-15T00:36:53.442Z,15.03
2018-12-15T00:39:20.971Z,14.90
2018-12-15T00:41:48.502Z,15.50
2018-12-15T00:44:16.031Z,13.53
2018-12-15T00:46:43.549Z,14.90
2018-12-15T00:49:11.069Z,13.90
2018-12-15T00:51:38.597Z,14.53
2018-12-15T00:54:06.110Z,14.87
2018-12-15T00:56:33.630Z,13.77
2018-12-15T00:59:01.157Z,12.63
2018-12-15T01:01:28.768Z,12.97
2018-12-15T01:03:56.353Z,17.17
2018-12-15T01:06:23.976Z,16.03
2018-12-15T01:08:51.521Z,13.27
2018-12-15T01:11:19.063Z,14.33
2018-12-15T01:13:46.670Z,14.53
2018-12-15T01:16:14.183Z,14.50
2018-12-15T01:18:41.705Z,13.07
2018-12-15T01:21:09.217Z,14.10
2018-12-15T01:23:36.743Z,13.13
2018-12-15T01:26:04.294Z,13.87
2018-12-15T01:28:31.826Z,13.50
2018-12-15T01:30:59.372Z,13.97
2018-12-15T01:33:26.916Z,12.80
2018-12-15T01:35:54.435Z,14.60
2018-12-15T01:38:21.973Z,13.20
2018-12-15T01:40:49.477Z,13.77
2018-12-15T01:43:17.011Z,13.53
2018-12-15T01:45:44.557Z,15.10
2018-12-15T01:48:12.093Z,14.30
2018-12-15T01:50:39.636Z,14.90
2018-12-15T01:53:07.146Z,13.13
2018-12-15T01:55:34.675Z,13.00
2018-12-15T01:58:02.181Z,14.50
2018-12-15T02:00:29.724Z,14.50
2018-12-15T02:02:57.257Z,13.33
2018-12-15T02:05:24.783Z,15.00
2018-12-15T02:07:52.300Z,15.17
2018-12-15T02:10:19.830Z,14.57
2018-12-15T02:12:47.341Z,15.23
2018-12-15T02:15:14.889Z,15.23
2018-12-15T02:17:42.437Z,14.77
2018-12-15T02:20:10.064Z,14.80
2018-12-15T02:22:37.616Z,15.47
2018-12-15T02:25:05.226Z,13.90
2018-12-15T02:27:32.792Z,15.80
2018-12-15T02:30:00.331Z,16.40
2018-12-15T02:32:27.872Z,16.07
2018-12-15T02:34:55.398Z,16.03
2018-12-15T02:37:22.957Z,15.37
2018-12-15T02:39:50.465Z,16.03
2018-12-15T02:42:17.973Z,15.90
2018-12-15T02:44:45.501Z,17.57
2018-12-15T02:47:13.009Z,16.27
2018-12-15T02:49:40.541Z,16.77
2018-12-15T02:52:08.077Z,16.20
2018-12-15T02:54:35.585Z,15.33
2018-12-15T02:57:03.134Z,16.67
2018-12-15T02:59:30.638Z,15.87
2018-12-15T03:01:58.176Z,16.27
2018-12-15T03:04:25.684Z,14.27
2018-12-15T03:06:53.215Z,15.90
2018-12-15T03:09:20.718Z,16.30
2018-12-15T03:11:48.276Z,16.80
2018-12-15T03:14:15.795Z,17.23
2018-12-15T03:17:02.373Z,17.43
2018-12-15T03:19:29.876Z,17.33
2018-12-15T03:21:57.397Z,17.97
2018-12-15T03:24:24.944Z,17.13
2018-12-15T03:26:52.463Z,16.30
2018-12-15T03:29:19.969Z,16.03
2018-12-15T03:31:47.478Z,17.57
2018-12-15T03:34:15.018Z,16.57
2018-12-15T03:36:42.525Z,16.43
2018-12-15T03:39:10.040Z,16.03
2018-12-15T03:41:37.543Z,18.47
2018-12-15T03:44:05.056Z,17.03
2018-12-15T03:46:32.559Z,17.13
2018-12-15T03:49:00.066Z,17.07
2018-12-15T03:51:27.599Z,15.13
2018-12-15T03:53:55.140Z,16.90
2018-12-15T03:56:22.651Z,17.53
2018-12-15T03:58:50.148Z,17.70
2018-12-15T04:01:17.655Z,16.93
2018-12-15T04:03:45.165Z,17.00
2018-12-15T04:06:12.708Z,17.47
2018-12-15T04:08:40.234Z,16.77
2018-12-15T04:11:07.776Z,17.97
2018-12-15T04:13:35.279Z,17.07
2018-12-15T04:16:02.798Z,18.63
2018-12-15T04:18:30.331Z,18.43
2018-12-15T04:20:57.849Z,21.60
2018-12-15T04:23:25.344Z,20.60
2018-12-15T04:25:52.867Z,17.50
2018-12-15T04:28:20.391Z,21.37
2018-12-15T04:30:47.892Z,20.37
2018-12-15T04:33:15.413Z,19.63
2018-12-15T04:35:42.936Z,19.90
2018-12-15T04:38:10.460Z,15.13
2018-12-15T04:40:38.358Z,17.40
2018-12-15T04:43:05.903Z,16.33
2018-12-15T04:45:34.261Z,18.73
2018-12-15T04:48:01.770Z,17.93
2018-12-15T04:50:29.307Z,17.77
2018-12-15T04:52:56.853Z,19.30
2018-12-15T04:55:24.398Z,18.17
2018-12-15T04:57:51.948Z,18.60
2018-12-15T05:00:19.458Z,16.67
2018-12-15T05:02:46.995Z,18.13
2018-12-15T05:05:14.523Z,17.17
2018-12-15T05:07:42.041Z,17.67
2018-12-15T05:10:09.597Z,16.90
2018-12-15T05:12:37.104Z,19.43
2018-12-15T05:15:04.775Z,17.87
2018-12-15T05:17:32.289Z,17.90
2018-12-15T05:19:59.819Z,18.07
2018-12-15T05:22:27.329Z,16.03
2018-12-15T05:24:54.985Z,18.73
2018-12-15T05:27:22.781Z,18.33
2018-12-15T05:29:50.312Z,17.77
2018-12-15T05:32:17.833Z,15.30
2018-12-15T05:34:45.336Z,17.30
2018-12-15T05:37:12.859Z,15.60
2018-12-15T05:39:40.395Z,17.00
2018-12-15T05:42:07.914Z,16.47
2018-12-15T05:44:35.440Z,16.27
2018-12-15T05:47:03.056Z,18.50
2018-12-15T05:49:30.566Z,15.60
2018-12-15T05:51:58.119Z,17.00
2018-12-15T05:54:25.643Z,16.93
2018-12-15T05:56:53.167Z,18.00
2018-12-15T05:59:20.684Z,19.13
2018-12-15T06:01:48.213Z,16.97
2018-12-15T06:04:15.751Z,19.13
2018-12-15T06:06:43.265Z,19.00
2018-12-15T06:09:10.789Z,18.03
2018-12-15T06:11:38.300Z,16.13
2018-12-15T06:14:05.820Z,18.83
2018-12-15T06:16:33.365Z,17.80
2018-12-15T06:19:00.896Z,17.03
2018-12-15T06:21:28.432Z,18.37
2018-12-15T06:23:55.946Z,19.23
2018-12-15T06:26:23.464Z,18.40
2018-12-15T06:28:50.964Z,16.90
2018-12-15T06:31:18.492Z,15.87
2018-12-15T06:33:46.001Z,18.77
2018-12-15T06:36:13.532Z,15.27
2018-12-15T06:38:41.074Z,22.70
2018-12-15T06:41:08.598Z,18.73
2018-12-15T06:43:36.597Z,19.17
2018-12-15T06:46:04.400Z,18.53
2018-12-15T06:48:37.997Z,16.20
2018-12-15T06:51:01.464Z,18.70
2018-12-15T06:53:29.011Z,17.90
2018-12-15T06:55:56.513Z,18.27
2018-12-15T06:58:24.017Z,17.63
2018-12-15T07:00:51.532Z,17.57
2018-12-15T07:03:19.042Z,17.60
2018-12-15T07:05:46.569Z,25.62
2018-12-15T07:08:14.072Z,21.03
2018-12-15T07:10:41.659Z,19.67
2018-12-15T07:13:09.243Z,17.13
2018-12-15T07:15:36.767Z,18.00
2018-12-15T07:18:04.296Z,17.50
2018-12-15T07:20:31.836Z,16.33
2018-12-15T07:22:59.359Z,16.03
2018-12-15T07:25:26.880Z,17.77
2018-12-15T07:27:54.425Z,21.03
2018-12-15T07:30:22.288Z,23.47
2018-12-15T07:32:49.817Z,28.90
2018-12-15T07:35:17.321Z,18.17
2018-12-15T07:37:44.855Z,17.70
2018-12-15T07:40:12.357Z,17.50
2018-12-15T07:42:39.897Z,18.27
2018-12-15T07:45:07.568Z,20.90
2018-12-15T07:47:35.092Z,18.73
2018-12-15T07:50:02.749Z,23.00
2018-12-15T07:52:30.275Z,21.20
2018-12-15T07:54:57.815Z,28.03
2018-12-15T07:57:25.339Z,18.93
2018-12-15T07:59:52.857Z,18.63
2018-12-15T08:02:20.480Z,16.53
2018-12-15T08:04:47.997Z,18.67
2018-12-15T08:07:15.604Z,18.80
2018-12-15T08:09:43.131Z,36.10
2018-12-15T08:12:16.326Z,26.83
2018-12-15T08:14:43.837Z,30.67
2018-12-15T08:17:11.484Z,21.47
2018-12-15T08:19:39.024Z,21.47
2018-12-15T08:22:06.563Z,17.33
2018-12-15T08:24:34.072Z,19.80
2018-12-15T08:27:01.599Z,23.03
2018-12-15T08:29:29.119Z,22.93
2018-12-15T08:31:56.644Z,19.97
2018-12-15T08:34:24.183Z,20.70
2018-12-15T08:36:51.689Z,22.97
2018-12-15T08:39:19.237Z,19.70
2018-12-15T08:41:46.740Z,23.80
2018-12-15T08:44:14.264Z,23.60
2018-12-15T08:46:41.800Z,22.83
2018-12-15T08:49:09.305Z,19.23
2018-12-15T08:51:36.824Z,22.43
2018-12-15T08:54:04.320Z,21.93
2018-12-15T08:56:31.849Z,22.00
2018-12-15T08:58:59.367Z,20.07
2018-12-15T09:01:26.906Z,21.63
2018-12-15T09:03:54.455Z,21.53
2018-12-15T09:06:21.960Z,22.13
2018-12-15T09:08:49.478Z,24.90
2018-12-15T09:11:16.976Z,25.50
2018-12-15T09:13:44.492Z,24.73
2018-12-15T09:16:12.001Z,23.93
2018-12-15T09:18:39.535Z,23.70
2018-12-15T09:21:07.132Z,41.70
2018-12-15T09:23:34.663Z,24.00
2018-12-15T09:26:02.183Z,23.80
2018-12-15T09:28:29.696Z,23.53
2018-12-15T09:30:57.197Z,21.93
2018-12-15T09:33:24.708Z,20.43
2018-12-15T09:35:52.227Z,23.87
2018-12-15T09:38:19.740Z,21.80
2018-12-15T09:40:47.257Z,21.63
2018-12-15T09:43:14.775Z,18.30
2018-12-15T09:45:42.272Z,23.73
2018-12-15T09:48:09.791Z,23.43
2018-12-15T09:50:37.316Z,21.53
2018-12-15T09:53:04.909Z,27.80
2018-12-15T09:55:32.427Z,23.90
2018-12-15T09:57:59.968Z,23.33
2018-12-15T10:00:27.474Z,23.70
2018-12-15T10:02:55.019Z,24.60
2018-12-15T10:05:22.696Z,21.90
2018-12-15T10:07:50.220Z,24.40
2018-12-15T10:10:17.756Z,22.43
2018-12-15T10:12:45.302Z,24.47
2018-12-15T10:15:12.924Z,23.67
2018-12-15T10:17:40.429Z,23.00
2018-12-15T10:20:08.044Z,30.35
2018-12-15T10:22:35.543Z,24.47
2018-12-15T10:25:03.507Z,24.83
2018-12-15T10:27:31.024Z,31.90
2018-12-15T10:30:04.368Z,26.30
2018-12-15T10:32:37.568Z,26.20
2018-12-15T10:35:05.849Z,25.70
2018-12-15T10:37:33.371Z,25.37
2018-12-15T10:40:00.906Z,23.57
2018-12-15T10:42:28.429Z,22.33
2018-12-15T10:44:55.944Z,25.30
2018-12-15T10:47:23.513Z,24.03
2018-12-15T10:49:51.116Z,25.20
2018-12-15T10:52:18.621Z,21.47
2018-12-15T10:54:46.144Z,22.43
2018-12-15T10:57:13.679Z,24.87
2018-12-15T10:59:41.198Z,23.43
2018-12-15T11:02:10.022Z,24.33
2018-12-15T11:04:37.727Z,24.03
2018-12-15T11:07:05.238Z,37.77
2018-12-15T11:09:32.810Z,33.93
2018-12-15T11:12:00.855Z,29.63
2018-12-15T11:14:28.369Z,28.70
2018-12-15T11:16:55.907Z,23.03
2018-12-15T11:19:23.409Z,28.80
2018-12-15T11:21:50.922Z,29.83
2018-12-15T11:24:18.453Z,55.67
2018-12-15T11:26:45.986Z,29.30
2018-12-15T11:29:13.511Z,29.40
2018-12-15T11:31:41.048Z,33.30
2018-12-15T11:34:08.553Z,27.07
2018-12-15T11:36:36.955Z,34.63
2018-12-15T11:39:06.774Z,45.90
2018-12-15T11:41:34.331Z,25.67
2018-12-15T11:44:01.863Z,23.63
2018-12-15T11:46:29.372Z,24.03
2018-12-15T11:48:56.901Z,29.43
2018-12-15T11:51:24.400Z,23.53
2018-12-15T11:53:52.952Z,24.40
2018-12-15T11:56:20.480Z,24.10
2018-12-15T11:58:48.032Z,23.23
2018-12-15T12:01:15.537Z,24.27
2018-12-15T12:03:43.069Z,24.60
2018-12-15T12:06:10.603Z,20.90
2018-12-15T12:08:38.116Z,20.80
2018-12-15T12:11:05.633Z,32.17
2018-12-15T12:13:33.224Z,31.47
2018-12-15T12:16:00.766Z,27.30
2018-12-15T12:18:28.320Z,25.47
2018-12-15T12:20:55.908Z,23.00
2018-12-15T12:23:23.423Z,25.53
2018-12-15T12:25:50.959Z,24.53
2018-12-15T12:28:18.473Z,24.43
2018-12-15T12:30:45.985Z,29.07
2018-12-15T12:33:13.603Z,29.53
2018-12-15T12:35:41.128Z,26.87
2018-12-15T12:38:08.820Z,25.73
2018-12-15T12:40:36.338Z,28.57
2018-12-15T12:43:03.939Z,24.60
2018-12-15T12:45:31.451Z,26.30
2018-12-15T12:47:58.952Z,30.07
2018-12-15T12:50:26.506Z,26.10
2018-12-15T12:52:54.010Z,29.03
2018-12-15T12:55:21.552Z,25.17
2018-12-15T12:57:49.076Z,23.97
2018-12-15T13:00:16.591Z,25.47
2018-12-15T13:02:44.097Z,27.10
2018-12-15T13:05:11.644Z,25.53
2018-12-15T13:07:39.153Z,29.83
2018-12-15T13:10:06.844Z,28.60
2018-12-15T13:12:34.355Z,42.73
2018-12-15T13:15:01.885Z,47.47
2018-12-15T13:17:29.530Z,40.67
2018-12-15T13:20:03.419Z,32.13
2018-12-15T13:22:26.588Z,23.57
2018-12-15T13:24:54.132Z,26.67
2018-12-15T13:27:21.632Z,28.70
2018-12-15T13:29:49.260Z,29.53
2018-12-15T13:32:16.779Z,28.07
2018-12-15T13:34:44.296Z,34.55
2018-12-15T13:37:11.885Z,28.83
2018-12-15T13:39:39.431Z,28.83
2018-12-15T13:42:06.929Z,29.53
2018-12-15T13:44:34.430Z,29.90
2018-12-15T13:47:01.966Z,26.27
2018-12-15T13:49:29.469Z,22.17
2018-12-15T13:51:56.999Z,25.00
2018-12-15T13:54:24.505Z,23.00
2018-12-15T13:56:52.392Z,21.43
2018-12-15T13:59:19.893Z,25.30
2018-12-15T14:01:47.387Z,23.17
2018-12-15T14:04:14.946Z,24.67
2018-12-15T14:06:42.453Z,25.50
2018-12-15T14:09:10.406Z,27.67
2018-12-15T14:11:37.969Z,27.67
2018-12-15T14:14:05.566Z,26.93
2018-12-15T14:16:33.103Z,26.87
2018-12-15T14:19:00.617Z,26.67
2018-12-15T14:21:28.124Z,23.30
2018-12-15T14:23:55.620Z,23.17
2018-12-15T14:26:23.155Z,23.50
2018-12-15T14:28:50.666Z,26.63
2018-12-15T14:31:18.204Z,23.60
2018-12-15T14:33:45.713Z,27.40
2018-12-15T14:36:13.247Z,28.67
2018-12-15T14:38:40.772Z,27.07
2018-12-15T14:41:08.292Z,27.67
2018-12-15T14:43:35.793Z,26.30
2018-12-15T14:46:03.337Z,30.17
2018-12-15T14:48:30.842Z,25.40
2018-12-15T14:50:58.388Z,26.93
2018-12-15T14:53:25.913Z,25.60
2018-12-15T14:55:53.453Z,25.43
2018-12-15T14:58:20.962Z,24.20
2018-12-15T15:00:48.500Z,25.47
2018-12-15T15:03:16.005Z,24.80
2018-12-15T15:05:43.535Z,25.20
2018-12-15T15:08:11.056Z,28.27
2018-12-15T15:10:38.576Z,32.70
2018-12-15T15:13:06.143Z,29.23
2018-12-15T15:15:33.640Z,24.93
2018-12-15T15:18:01.188Z,25.67
2018-12-15T15:20:29.937Z,24.20
2018-12-15T15:22:57.670Z,21.53
2018-12-15T15:25:25.191Z,22.63
2018-12-15T15:27:52.735Z,25.20
2018-12-15T15:30:20.260Z,24.07
2018-12-15T15:32:47.770Z,21.00
2018-12-15T15:35:15.314Z,24.00
2018-12-15T15:37:42.826Z,23.67
2018-12-15T15:40:10.324Z,26.13
2018-12-15T15:42:37.841Z,28.70
2018-12-15T15:45:05.656Z,34.73
2018-12-15T15:47:33.185Z,37.97
2018-12-15T15:50:00.696Z,34.93
2018-12-15T15:52:28.201Z,42.98
2018-12-15T15:54:55.744Z,40.93
2018-12-15T15:57:23.249Z,30.20
2018-12-15T15:59:50.788Z,25.90
2018-12-15T16:02:18.310Z,26.13
2018-12-15T16:04:45.840Z,24.90
2018-12-15T16:07:13.366Z,26.57
2018-12-15T16:09:44.872Z,26.07
2018-12-15T16:12:10.456Z,26.30
2018-12-15T16:14:37.980Z,26.57
2018-12-15T16:17:05.528Z,21.67
2018-12-15T16:19:33.050Z,25.00
2018-12-15T16:22:00.588Z,26.00
2018-12-15T16:24:28.107Z,30.05
2018-12-15T16:26:55.647Z,28.43
2018-12-15T16:29:23.172Z,24.90
2018-12-15T16:31:50.702Z,26.97
2018-12-15T16:34:18.225Z,28.30
2018-12-15T16:36:45.730Z,24.10
2018-12-15T16:39:13.263Z,26.83
2018-12-15T16:41:42.433Z,24.03
2018-12-15T16:44:10.163Z,23.73
2018-12-15T16:46:37.680Z,23.17
2018-12-15T16:49:06.082Z,26.73
2018-12-15T16:51:33.918Z,26.63
2018-12-15T16:54:01.440Z,27.77
2018-12-15T16:56:28.961Z,28.20
2018-12-15T16:58:56.461Z,24.90
2018-12-15T17:01:23.974Z,27.13
2018-12-15T17:03:51.495Z,31.70
2018-12-15T17:06:19.009Z,30.83
2018-12-15T17:08:46.527Z,27.97
2018-12-15T17:11:14.063Z,27.63
2018-12-15T17:13:41.593Z,28.13
2018-12-15T17:16:09.112Z,28.53
2018-12-15T17:18:36.622Z,29.43
2018-12-15T17:21:04.207Z,26.57
2018-12-15T17:23:31.725Z,36.17
2018-12-15T17:25:59.220Z,25.37
2018-12-15T17:28:26.756Z,30.77
2018-12-15T17:30:54.256Z,28.33
2018-12-15T17:33:21.776Z,29.23
2018-12-15T17:35:49.294Z,27.90
2018-12-15T17:38:16.792Z,24.80
2018-12-15T17:40:44.335Z,29.33
2018-12-15T17:43:11.847Z,30.60
2018-12-15T17:45:39.825Z,23.77
2018-12-15T17:48:07.348Z,29.30
2018-12-15T17:50:34.909Z,29.03
2018-12-15T17:53:02.404Z,29.43
2018-12-15T17:55:30.036Z,29.47
2018-12-15T17:57:57.574Z,27.47
2018-12-15T18:00:25.106Z,30.00
2018-12-15T18:02:52.609Z,29.33
2018-12-15T18:05:20.120Z,24.60
2018-12-15T18:07:47.648Z,29.47
2018-12-15T18:10:15.180Z,30.07
2018-12-15T18:12:42.716Z,30.60
2018-12-15T18:15:10.358Z,31.20
2018-12-15T18:17:37.938Z,30.87
2018-12-15T18:20:06.703Z,30.83
2018-12-15T18:22:34.236Z,29.43
2018-12-15T18:25:01.743Z,28.27
2018-12-15T18:27:29.256Z,31.23
2018-12-15T18:29:56.778Z,29.73
2018-12-15T18:32:24.305Z,26.43
2018-12-15T18:34:51.833Z,31.13
2018-12-15T18:37:19.361Z,29.73
2018-12-15T18:39:46.887Z,26.47
2018-12-15T18:42:14.388Z,29.13
2018-12-15T18:44:41.951Z,30.60
2018-12-15T18:47:09.477Z,30.43
2018-12-15T18:49:37.021Z,42.07
2018-12-15T18:52:04.529Z,33.40
2018-12-15T18:54:32.050Z,32.63
2018-12-15T18:56:59.743Z,35.03
2018-12-15T18:59:27.385Z,29.90
2018-12-15T19:01:54.912Z,29.00
2018-12-15T19:04:22.430Z,29.10
2018-12-15T19:06:49.947Z,34.23
2018-12-15T19:09:17.476Z,30.80
2018-12-15T19:11:45.004Z,33.40
2018-12-15T19:14:12.548Z,30.13
2018-12-15T19:16:40.069Z,33.03
2018-12-15T19:19:07.568Z,28.03
2018-12-15T19:21:35.113Z,32.73
2018-12-15T19:24:02.744Z,33.13
2018-12-15T19:26:30.283Z,29.10
2018-12-15T19:28:57.789Z,30.70
2018-12-15T19:31:25.338Z,33.47
2018-12-15T19:33:52.845Z,26.60
2018-12-15T19:36:20.383Z,31.77
2018-12-15T19:38:48.505Z,30.93
2018-12-15T19:41:16.038Z,34.83
2018-12-15T19:43:43.552Z,32.20
2018-12-15T19:46:11.084Z,33.70
2018-12-15T19:48:38.637Z,32.83
2018-12-15T19:51:06.168Z,33.10
2018-12-15T19:53:33.668Z,35.77
2018-12-15T19:56:01.177Z,39.10
2018-12-15T19:58:28.688Z,31.67
2018-12-15T20:00:56.207Z,32.53
2018-12-15T20:03:23.709Z,33.10
2018-12-15T20:05:51.232Z,33.90
2018-12-15T20:08:18.741Z,32.57
2018-12-15T20:10:46.282Z,34.13
2018-12-15T20:13:13.812Z,32.63
2018-12-15T20:15:41.357Z,33.33
2018-12-15T20:18:08.898Z,31.93
2018-12-15T20:20:36.448Z,34.30
2018-12-15T20:23:03.964Z,38.00
2018-12-15T20:25:31.487Z,32.40
2018-12-15T20:27:59.001Z,33.10
2018-12-15T20:30:26.505Z,34.63
2018-12-15T20:32:54.025Z,32.67
2018-12-15T20:35:21.550Z,33.13
2018-12-15T20:37:49.080Z,31.73
2018-12-15T20:40:16.587Z,31.97
2018-12-15T20:42:44.129Z,32.23
2018-12-15T20:45:11.634Z,34.20
2018-12-15T20:47:39.442Z,33.63
2018-12-15T20:50:07.247Z,35.27
2018-12-15T20:52:34.786Z,47.60
2018-12-15T20:55:02.333Z,44.77
2018-12-15T20:57:29.832Z,35.90
2018-12-15T20:59:57.340Z,37.40
2018-12-15T21:02:25.511Z,36.67
2018-12-15T21:04:53.072Z,44.43
2018-12-15T21:07:20.577Z,34.70
2018-12-15T21:09:48.111Z,31.53
2018-12-15T21:12:15.675Z,34.17
2018-12-15T21:14:43.819Z,34.47
2018-12-15T21:17:11.391Z,32.00
2018-12-15T21:19:38.989Z,35.30
2018-12-15T21:22:09.657Z,32.10
2018-12-15T21:24:37.364Z,31.07
2018-12-15T21:27:05.643Z,34.47
2018-12-15T21:29:33.180Z,33.77
2018-12-15T21:32:00.699Z,33.87
2018-12-15T21:34:28.235Z,36.83
2018-12-15T21:36:55.776Z,34.60
2018-12-15T21:39:23.300Z,33.23
2018-12-15T21:41:50.844Z,36.03
2018-12-15T21:44:18.365Z,32.27
2018-12-15T21:46:45.873Z,32.60
2018-12-15T21:49:13.412Z,33.37
2018-12-15T21:51:40.938Z,33.87
2018-12-15T21:54:08.459Z,31.90
2018-12-15T21:56:35.957Z,32.70
2018-12-15T21:59:03.544Z,33.30
2018-12-15T22:01:31.046Z,33.70
2018-12-15T22:03:58.556Z,29.90
2018-12-15T22:06:26.062Z,33.27
2018-12-15T22:08:53.572Z,34.60
2018-12-15T22:11:21.096Z,35.97
2018-12-15T22:13:48.689Z,29.03
2018-12-15T22:16:16.207Z,32.10
2018-12-15T22:18:43.735Z,32.23
2018-12-15T22:21:11.243Z,31.37
2018-12-15T22:23:38.754Z,29.73
2018-12-15T22:26:06.265Z,33.20
2018-12-15T22:28:33.789Z,32.23
2018-12-15T22:31:01.318Z,35.03
2018-12-15T22:33:28.829Z,33.07
2018-12-15T22:35:56.336Z,33.77
2018-12-15T22:38:23.875Z,33.67
2018-12-15T22:40:51.409Z,30.00
2018-12-15T22:43:18.931Z,32.60
2018-12-15T22:45:46.458Z,32.43
2018-12-15T22:48:13.997Z,32.07
2018-12-15T22:50:41.519Z,33.77
2018-12-15T22:53:09.016Z,32.90
2018-12-15T22:55:36.537Z,34.03
2018-12-15T22:58:04.037Z,34.20
2018-12-15T23:00:33.547Z,31.27
2018-12-15T23:03:01.051Z,32.70
2018-12-15T23:05:28.590Z,32.83
2018-12-15T23:07:56.123Z,28.00
2018-12-15T23:10:23.664Z,30.43
2018-12-15T23:12:51.208Z,29.23
2018-12-15T23:15:18.717Z,32.53
2018-12-15T23:17:46.232Z,31.03
2018-12-15T23:20:13.738Z,30.50
2018-12-15T23:22:41.269Z,30.43
2018-12-15T23:25:08.773Z,30.63
2018-12-15T23:27:36.298Z,31.23
2018-12-15T23:30:05.575Z,29.30
2018-12-15T23:32:33.440Z,30.17
2018-12-15T23:35:00.956Z,32.00
2018-12-15T23:37:28.481Z,26.13
2018-12-15T23:39:56.026Z,28.17
2018-12-15T23:42:23.551Z,28.53
2018-12-15T23:44:51.075Z,27.43
2018-12-15T23:47:18.604Z,27.80
2018-12-15T23:49:46.125Z,25.80
2018-12-15T23:52:13.661Z,23.63
2018-12-15T23:54:41.157Z,26.97
2018-12-15T23:57:08.701Z,29.17
2018-12-15T23:59:36.222Z,27.63
